Macedonia, Iowa
Current Conditions -  °F | °C
As of 9:55 AM on Friday 24 Oct 2014 (Local Time) from KRDK Reporting Station
NA  
Wind Chill: 63°   Ceiling: NA
Heat Index: 63°   Visibility: NA
Dew Point: 61°   Wind: 15mph
Humidity: 94%   Direction: 190°S
Pressure: 29.95"   Gusts: NA
Location:  41.19°N, 95.43°W
Report Text: KRDK 241455Z AUTO 19013KT 17/16 A2995 RMK AO2
Loading
Personal Weather Stations






























Interactive Weather Map
Tropical Storm Tracking
New forecast layout! Learn more

10-Day Weather Forecast

Advertisements
Track Severe Weather on mobile